To NAV CANADA Home Page Login to a new session Search on AWWS site Feedback and Comments Disclaimer Vers la page française équivalente Tips FAQ What's new on the site To the Forecasts and Observations / NOTAM section To "File a Flight Plan" website Publications and other links Update of the User's profile FIC Telephone Numbers My Weather Data Folder Route Weather Data Regional Weather Data Local Weather Data To the Forecasts and Observations / NOTAM section
Request Generated 06/26/2017 at 22:29:33 UTC . Weather information available at that time is displayed.

METAR/TAF

THOMPSON/MB    

METAR CYTH 262200Z 28015G23KT 240V310 15SM FEW100 SCT240 26/03 A2981
RMK AC1CI3 SLP100 DENSITY ALT 2400FT=
METAR CYTH 262100Z 28017G27KT 15SM FEW100 SCT190 BKN240 25/02 A2983
RMK AC1CS2CI2 SLP107 DENSITY ALT 2200FT=
METAR CYTH 262000Z 28016G26KT 240V300 15SM FEW100 SCT210 25/03 A2985
RMK AC2CI2 SLP114 DENSITY ALT 2200FT=

TAF CYTH 261838Z 2619/2707 28015G25KT P6SM SCT080
BECMG 2701/2703 28010KT
FM270500 36004KT P6SM SKC
RMK NXT FCST BY 270100Z=
Your time UTC time
Weather data provided by Environment Canada and NAV CANADA